createdAt,value
2023-01-23T00:02:16.924Z,11.15
2023-01-23T00:04:44.298Z,10.05
2023-01-23T00:07:11.624Z,9.57
2023-01-23T00:09:38.899Z,11.48
2023-01-23T00:12:06.507Z,10.20
2023-01-23T00:14:33.758Z,11.18
2023-01-23T00:17:01.054Z,10.25
2023-01-23T00:19:28.364Z,10.55
2023-01-23T00:21:55.625Z,10.52
2023-01-23T00:24:22.891Z,11.63
2023-01-23T00:26:50.149Z,12.50
2023-01-23T00:29:17.491Z,12.15
2023-01-23T00:31:45.214Z,10.70
2023-01-23T00:34:14.844Z,11.93
2023-01-23T00:36:42.766Z,9.88
2023-01-23T00:39:13.556Z,10.50
2023-01-23T00:41:44.166Z,11.77
2023-01-23T00:44:11.471Z,10.73
2023-01-23T00:46:38.890Z,11.05
2023-01-23T00:49:06.581Z,10.98
2023-01-23T00:51:34.141Z,11.57
2023-01-23T00:54:01.846Z,10.85
2023-01-23T00:56:29.380Z,11.77
2023-01-23T00:58:56.800Z,12.18
2023-01-23T01:01:24.202Z,10.73
2023-01-23T01:03:51.550Z,9.70
2023-01-23T01:06:18.807Z,11.52
2023-01-23T01:08:46.173Z,10.55
2023-01-23T01:11:13.465Z,10.82
2023-01-23T01:13:40.773Z,11.50
2023-01-23T01:16:09.259Z,10.83
2023-01-23T01:18:36.703Z,10.48
2023-01-23T01:21:07.829Z,12.00
2023-01-23T01:23:35.542Z,10.48
2023-01-23T01:26:03.008Z,12.65
2023-01-23T01:28:30.720Z,12.30
2023-01-23T01:30:58.695Z,12.70
2023-01-23T01:33:28.532Z,12.40
2023-01-23T01:35:56.640Z,11.30
2023-01-23T01:38:24.103Z,11.75
2023-01-23T01:40:51.395Z,12.60
2023-01-23T01:43:20.716Z,10.88
2023-01-23T01:45:57.076Z,11.85
2023-01-23T01:48:26.342Z,11.27
2023-01-23T01:50:54.091Z,11.18
2023-01-23T01:53:22.748Z,12.30
2023-01-23T01:55:51.298Z,11.50
2023-01-23T01:58:19.049Z,11.23
2023-01-23T02:00:46.409Z,12.15
2023-01-23T02:03:13.818Z,12.48
2023-01-23T02:05:43.705Z,12.75
2023-01-23T02:08:19.784Z,11.20
2023-01-23T02:10:48.456Z,11.43
2023-01-23T02:13:32.517Z,11.55
2023-01-23T02:16:01.220Z,12.75
2023-01-23T02:18:29.768Z,11.73
2023-01-23T02:20:58.557Z,11.77
2023-01-23T02:23:42.516Z,11.05
2023-01-23T02:26:16.813Z,10.50
2023-01-23T02:28:48.547Z,11.45
2023-01-23T02:31:20.489Z,13.65
2023-01-23T02:33:52.695Z,11.15
2023-01-23T02:36:22.308Z,12.60
2023-01-23T02:38:54.698Z,11.77
2023-01-23T02:41:28.882Z,11.93
2023-01-23T02:43:57.442Z,12.32
2023-01-23T02:46:25.149Z,11.57
2023-01-23T02:48:52.559Z,14.25
2023-01-23T02:51:21.849Z,11.50
2023-01-23T02:56:18.367Z,11.70
2023-01-23T02:59:04.372Z,10.77
2023-01-23T03:01:33.692Z,12.98
2023-01-23T03:06:37.539Z,12.07
2023-01-23T03:09:07.948Z,12.32
2023-01-23T03:11:35.435Z,12.13
2023-01-23T03:14:04.483Z,13.32
2023-01-23T03:16:32.583Z,14.30
2023-01-23T03:19:05.016Z,11.90
2023-01-23T03:21:36.371Z,12.02
2023-01-23T03:24:05.552Z,13.13
2023-01-23T03:26:32.968Z,12.68
2023-01-23T03:29:18.917Z,12.82
2023-01-23T03:31:46.251Z,14.32
2023-01-23T03:34:13.682Z,12.15
2023-01-23T03:36:41.293Z,13.20
2023-01-23T03:39:27.444Z,11.20
2023-01-23T03:41:55.344Z,12.00
2023-01-23T03:46:52.853Z,12.82
2023-01-23T03:49:20.303Z,12.70
2023-01-23T03:51:51.833Z,14.25
2023-01-23T03:54:19.151Z,11.82
2023-01-23T03:56:46.404Z,10.93
2023-01-23T03:59:30.756Z,11.30
2023-01-23T04:02:00.549Z,13.68
2023-01-23T04:04:27.901Z,12.63
2023-01-23T04:06:55.968Z,13.02
2023-01-23T04:09:27.909Z,14.13
2023-01-23T04:11:58.496Z,12.70
2023-01-23T04:16:54.163Z,11.18
2023-01-23T04:19:21.630Z,13.23
2023-01-23T04:21:49.169Z,14.13
2023-01-23T04:24:17.343Z,11.85
2023-01-23T04:26:44.971Z,12.23
2023-01-23T04:29:12.992Z,13.18
2023-01-23T04:31:40.536Z,14.93
2023-01-23T04:34:08.350Z,14.15
2023-01-23T04:36:36.116Z,12.88
2023-01-23T04:39:03.496Z,13.52
2023-01-23T04:41:33.033Z,10.90
2023-01-23T04:44:20.708Z,12.60
2023-01-23T04:47:06.857Z,14.05
2023-01-23T04:49:34.943Z,13.93
2023-01-23T04:52:02.492Z,14.45
2023-01-23T04:54:32.435Z,14.90
2023-01-23T04:57:00.498Z,14.57
2023-01-23T04:59:27.959Z,13.98
2023-01-23T05:01:55.230Z,14.07
2023-01-23T05:04:24.064Z,13.17
2023-01-23T05:06:51.678Z,13.88
2023-01-23T05:09:18.938Z,13.63
2023-01-23T05:11:51.827Z,15.30
2023-01-23T05:14:22.175Z,12.57
2023-01-23T05:16:50.979Z,15.73
2023-01-23T05:19:19.775Z,12.50
2023-01-23T05:21:47.385Z,13.45
2023-01-23T05:24:17.959Z,14.00
2023-01-23T05:26:46.202Z,13.95
2023-01-23T05:29:14.171Z,15.32
2023-01-23T05:31:50.209Z,14.32
2023-01-23T05:34:36.511Z,14.38
2023-01-23T05:39:35.318Z,13.35
2023-01-23T05:42:03.257Z,14.27
2023-01-23T05:44:30.540Z,14.77
2023-01-23T05:47:05.627Z,14.38
2023-01-23T05:49:34.039Z,12.77
2023-01-23T05:52:01.784Z,15.48
2023-01-23T05:54:29.629Z,14.93
2023-01-23T05:56:57.025Z,14.63
2023-01-23T05:59:42.689Z,14.50
2023-01-23T06:02:32.842Z,15.73
2023-01-23T06:05:18.686Z,15.40
2023-01-23T06:08:02.704Z,15.25
2023-01-23T06:10:30.542Z,15.50
2023-01-23T06:12:57.876Z,14.45
2023-01-23T06:15:25.164Z,15.77
2023-01-23T06:17:55.092Z,13.88
2023-01-23T06:20:23.399Z,16.73
2023-01-23T06:22:50.666Z,16.75
2023-01-23T06:25:20.663Z,14.50
2023-01-23T06:27:48.436Z,15.45
2023-01-23T06:30:15.823Z,14.68
2023-01-23T06:32:46.321Z,16.77
2023-01-23T06:35:17.494Z,15.95
2023-01-23T06:37:45.477Z,14.82
2023-01-23T06:40:17.310Z,14.82
2023-01-23T06:42:58.453Z,15.45
2023-01-23T06:45:25.735Z,14.63
2023-01-23T06:47:53.425Z,14.40
2023-01-23T06:50:21.176Z,16.10
2023-01-23T06:52:48.552Z,15.95
2023-01-23T06:55:15.843Z,16.17
2023-01-23T06:57:44.870Z,15.13
2023-01-23T07:00:12.571Z,15.02
2023-01-23T07:02:40.266Z,15.23
2023-01-23T07:05:07.796Z,17.52
2023-01-23T07:07:35.617Z,17.15
2023-01-23T07:10:02.995Z,15.75
2023-01-23T07:12:30.275Z,15.82
2023-01-23T07:14:57.600Z,15.15
2023-01-23T07:17:35.279Z,15.73
2023-01-23T07:20:02.579Z,14.90
2023-01-23T07:22:30.030Z,15.70
2023-01-23T07:24:57.270Z,16.23
2023-01-23T07:27:24.529Z,15.32
2023-01-23T07:29:51.802Z,14.82
2023-01-23T07:32:19.088Z,15.82
2023-01-23T07:34:46.383Z,16.17
2023-01-23T07:37:13.636Z,14.63
2023-01-23T07:39:40.839Z,15.30
2023-01-23T07:42:08.064Z,15.63
2023-01-23T07:44:35.296Z,16.10
2023-01-23T07:47:02.616Z,15.75
2023-01-23T07:49:29.898Z,16.65
2023-01-23T07:51:57.108Z,15.65
2023-01-23T07:54:24.383Z,15.48
2023-01-23T07:56:51.898Z,16.20
2023-01-23T07:59:19.198Z,16.00
2023-01-23T08:01:46.453Z,16.77
2023-01-23T08:04:13.854Z,15.07
2023-01-23T08:06:41.108Z,14.45
2023-01-23T08:09:08.394Z,16.80
2023-01-23T08:11:35.616Z,16.23
2023-01-23T08:14:02.896Z,16.27
2023-01-23T08:16:30.084Z,16.15
2023-01-23T08:18:57.324Z,15.82
2023-01-23T08:21:24.976Z,15.35
2023-01-23T08:23:52.211Z,15.10
2023-01-23T08:26:19.454Z,15.77
2023-01-23T08:28:46.714Z,15.63
2023-01-23T08:31:14.522Z,17.85
2023-01-23T08:33:41.868Z,16.95
2023-01-23T08:36:11.304Z,16.98
2023-01-23T08:38:39.087Z,18.85
2023-01-23T08:41:06.851Z,17.45
2023-01-23T08:43:34.193Z,16.98
2023-01-23T08:46:02.553Z,18.80
2023-01-23T08:48:29.946Z,17.30
2023-01-23T08:51:01.695Z,18.45
2023-01-23T08:53:29.138Z,17.23
2023-01-23T08:56:04.090Z,16.58
2023-01-23T08:58:31.570Z,18.48
2023-01-23T09:00:59.442Z,17.25
2023-01-23T09:03:27.083Z,17.20
2023-01-23T09:05:54.338Z,21.05
2023-01-23T09:08:21.599Z,18.98
2023-01-23T09:10:48.847Z,17.15
2023-01-23T09:13:16.099Z,20.63
2023-01-23T09:15:43.391Z,17.08
2023-01-23T09:18:10.590Z,16.77
2023-01-23T09:20:39.129Z,17.35
2023-01-23T09:23:06.391Z,17.55
2023-01-23T09:25:33.635Z,16.85
2023-01-23T09:28:01.023Z,18.38
2023-01-23T09:30:28.337Z,16.50
2023-01-23T09:32:55.616Z,17.75
2023-01-23T09:35:23.461Z,18.35
2023-01-23T09:38:00.002Z,16.42
2023-01-23T09:40:37.621Z,17.77
2023-01-23T09:43:17.535Z,18.08
2023-01-23T09:45:47.448Z,18.20
2023-01-23T09:48:23.918Z,18.50
2023-01-23T09:50:57.017Z,17.00
2023-01-23T09:53:26.096Z,15.48
2023-01-23T09:56:01.194Z,16.25
2023-01-23T09:58:35.637Z,16.30
2023-01-23T10:01:02.953Z,16.52
2023-01-23T10:03:31.419Z,18.48
2023-01-23T10:06:16.424Z,16.15
2023-01-23T10:08:46.619Z,18.25
2023-01-23T10:11:25.829Z,15.70
2023-01-23T10:13:53.061Z,16.60
2023-01-23T10:16:48.526Z,17.30
2023-01-23T10:19:35.145Z,16.55
2023-01-23T10:22:04.889Z,17.13
2023-01-23T10:24:39.882Z,17.25
2023-01-23T10:27:31.851Z,17.13
2023-01-23T10:30:05.360Z,15.80
2023-01-23T10:32:47.742Z,17.42
2023-01-23T10:35:19.678Z,17.38
2023-01-23T10:37:51.498Z,18.58
2023-01-23T10:40:40.119Z,18.70
2023-01-23T10:43:13.581Z,17.77
2023-01-23T10:45:41.515Z,17.50
2023-01-23T10:48:27.318Z,16.27
2023-01-23T10:50:55.438Z,14.82
2023-01-23T10:53:22.959Z,18.45
2023-01-23T10:55:51.075Z,17.05
2023-01-23T10:58:24.213Z,18.15
2023-01-23T11:00:51.571Z,15.18
2023-01-23T11:03:21.791Z,17.00
2023-01-23T11:05:56.698Z,15.60
2023-01-23T11:08:29.091Z,14.88
2023-01-23T11:11:16.315Z,15.25
2023-01-23T11:13:44.776Z,15.30
2023-01-23T11:16:22.150Z,15.20
2023-01-23T11:18:56.703Z,15.18
2023-01-23T11:21:24.837Z,15.90
2023-01-23T11:24:08.373Z,15.35
2023-01-23T11:26:36.632Z,12.68
2023-01-23T11:29:19.630Z,13.88
2023-01-23T11:31:47.288Z,12.60
2023-01-23T11:34:14.900Z,12.70
2023-01-23T11:36:48.692Z,12.40
2023-01-23T11:39:24.489Z,11.43
2023-01-23T11:41:52.343Z,11.77
2023-01-23T11:44:22.739Z,10.68
2023-01-23T11:47:05.865Z,10.73
2023-01-23T11:49:53.383Z,9.55
2023-01-23T11:52:38.821Z,9.10
2023-01-23T11:55:06.079Z,8.95
2023-01-23T11:57:56.906Z,8.07
2023-01-23T12:00:35.756Z,7.63
2023-01-23T12:03:18.422Z,7.40
2023-01-23T12:05:51.846Z,7.15
2023-01-23T12:08:19.119Z,6.75
2023-01-23T12:10:52.398Z,6.72
2023-01-23T12:13:19.625Z,7.00
2023-01-23T12:15:52.906Z,7.88
2023-01-23T12:18:23.261Z,7.78
2023-01-23T12:20:51.550Z,6.93
2023-01-23T12:23:21.786Z,6.22
2023-01-23T12:25:55.258Z,6.47
2023-01-23T12:28:36.951Z,6.32
2023-01-23T12:31:05.744Z,6.22
2023-01-23T12:33:36.120Z,6.57
2023-01-23T12:36:29.474Z,6.95
2023-01-23T12:38:59.528Z,6.93
2023-01-23T12:41:34.489Z,7.68
2023-01-23T12:44:16.735Z,7.55
2023-01-23T12:46:50.907Z,6.68
2023-01-23T12:49:44.401Z,6.53
2023-01-23T12:52:18.493Z,6.57
2023-01-23T12:54:56.644Z,6.22
2023-01-23T12:57:52.548Z,6.15
2023-01-23T13:00:37.544Z,6.57
2023-01-23T13:03:22.799Z,5.75
2023-01-23T13:05:53.612Z,6.75
2023-01-23T13:08:38.360Z,8.50
2023-01-23T13:11:29.701Z,7.20
2023-01-23T13:13:57.273Z,7.45
2023-01-23T13:16:27.947Z,7.53
2023-01-23T13:19:15.686Z,6.90
2023-01-23T13:22:04.525Z,6.72
2023-01-23T13:24:57.127Z,5.97
2023-01-23T13:27:39.957Z,6.82
2023-01-23T13:30:36.257Z,6.72
2023-01-23T13:33:06.497Z,6.28
2023-01-23T13:35:39.786Z,5.45
2023-01-23T13:38:22.185Z,6.63
2023-01-23T13:41:04.342Z,5.82
2023-01-23T13:43:50.188Z,6.68
2023-01-23T13:46:37.825Z,5.90
2023-01-23T14:21:42.560Z,6.72
2023-01-23T14:24:22.285Z,7.85
2023-01-23T14:26:50.624Z,6.18
2023-01-23T14:29:20.622Z,7.47
2023-01-23T14:31:48.086Z,7.00
2023-01-23T14:34:18.648Z,7.38
2023-01-23T14:36:47.992Z,7.35
2023-01-23T14:39:23.116Z,6.65
2023-01-23T14:41:51.113Z,6.47
2023-01-23T14:44:21.420Z,6.03
2023-01-23T14:46:51.914Z,6.13
2023-01-23T14:49:24.373Z,5.45
2023-01-23T14:51:59.627Z,4.88
2023-01-23T14:54:31.791Z,4.03
2023-01-23T14:57:01.878Z,4.28
2023-01-23T14:59:32.168Z,3.75
2023-01-23T15:02:03.296Z,3.58
2023-01-23T15:04:32.551Z,4.13
2023-01-23T15:07:00.677Z,4.18
2023-01-23T15:09:29.242Z,3.95
2023-01-23T15:11:57.068Z,4.03
2023-01-23T15:14:26.897Z,4.25
2023-01-23T15:17:01.111Z,4.90
2023-01-23T15:19:28.737Z,4.80
2023-01-23T15:22:18.131Z,3.92
2023-01-23T15:24:45.465Z,5.45
2023-01-23T15:27:49.070Z,5.57
2023-01-23T15:30:34.481Z,5.47
2023-01-23T15:33:10.268Z,7.57
2023-01-23T15:35:38.764Z,4.00
2023-01-23T15:38:08.664Z,4.47
2023-01-23T15:40:38.219Z,5.90
2023-01-23T15:43:25.856Z,4.88
2023-01-23T15:45:53.795Z,5.93
2023-01-23T15:48:21.082Z,5.93
2023-01-23T15:50:48.410Z,6.80
2023-01-23T15:53:16.264Z,8.38
2023-01-23T15:55:43.569Z,7.82
2023-01-23T15:58:17.108Z,8.63
2023-01-23T16:00:44.428Z,8.23
2023-01-23T16:03:14.691Z,8.57
2023-01-23T16:05:42.164Z,7.68
2023-01-23T16:08:18.707Z,9.73
2023-01-23T16:10:46.295Z,8.48
2023-01-23T16:13:14.335Z,9.20
2023-01-23T16:15:43.920Z,9.45
2023-01-23T16:18:11.175Z,9.18
2023-01-23T16:20:40.317Z,11.05
2023-01-23T16:23:15.094Z,9.77
2023-01-23T16:25:45.500Z,9.23
2023-01-23T16:28:14.433Z,10.07
2023-01-23T16:30:41.708Z,8.70
2023-01-23T16:33:09.394Z,8.40
2023-01-23T16:35:36.969Z,8.57
2023-01-23T16:38:04.422Z,8.20
2023-01-23T16:40:32.124Z,8.77
2023-01-23T16:43:03.224Z,9.38
2023-01-23T16:45:31.575Z,8.30
2023-01-23T16:47:59.244Z,8.30
2023-01-23T16:50:58.623Z,8.52
2023-01-23T16:53:27.183Z,7.00
2023-01-23T16:55:55.483Z,8.00
2023-01-23T16:58:24.636Z,9.20
2023-01-23T17:00:52.781Z,8.90
2023-01-23T17:03:24.466Z,10.73
2023-01-23T17:05:51.733Z,8.95
2023-01-23T17:08:22.925Z,10.27
2023-01-23T17:10:52.374Z,9.02
2023-01-23T17:15:47.965Z,9.60
2023-01-23T17:18:23.355Z,9.20
2023-01-23T17:20:50.818Z,10.30
2023-01-23T17:23:18.189Z,10.45
2023-01-23T17:25:59.934Z,9.35
2023-01-23T17:28:28.645Z,10.85
2023-01-23T17:31:00.412Z,10.45
2023-01-23T17:33:30.311Z,9.38
2023-01-23T17:35:57.701Z,10.43
2023-01-23T17:38:26.318Z,11.13
2023-01-23T17:40:54.158Z,11.25
2023-01-23T17:43:21.971Z,10.65
2023-01-23T17:45:50.795Z,10.02
2023-01-23T17:48:23.438Z,12.13
2023-01-23T17:50:50.748Z,10.38
2023-01-23T17:53:19.463Z,9.70
2023-01-23T17:55:51.350Z,10.30
2023-01-23T17:58:19.200Z,11.95
2023-01-23T18:00:48.846Z,12.57
2023-01-23T18:03:17.359Z,12.65
2023-01-23T18:05:44.935Z,11.82
2023-01-23T18:08:16.108Z,11.93
2023-01-23T18:10:46.963Z,13.40
2023-01-23T18:13:17.504Z,11.23
2023-01-23T18:15:50.775Z,10.35
2023-01-23T18:18:37.138Z,11.70
2023-01-23T18:21:05.795Z,13.25
2023-01-23T18:23:37.084Z,12.70
2023-01-23T18:26:07.621Z,12.30
2023-01-23T18:28:39.491Z,13.57
2023-01-23T18:31:14.386Z,11.00
2023-01-23T18:33:51.555Z,12.82
2023-01-23T18:36:30.827Z,13.15
2023-01-23T18:38:58.066Z,12.73
2023-01-23T18:41:26.736Z,12.60
2023-01-23T18:44:00.162Z,12.88
2023-01-23T18:46:27.997Z,12.65
2023-01-23T18:48:55.564Z,12.48
2023-01-23T18:51:41.569Z,12.68
2023-01-23T18:54:08.923Z,26.05
2023-01-23T18:56:48.551Z,15.13
2023-01-23T18:59:22.073Z,14.48
2023-01-23T19:01:54.220Z,14.82
2023-01-23T19:04:41.842Z,16.42
2023-01-23T19:07:16.133Z,14.23
2023-01-23T19:09:46.580Z,14.75
2023-01-23T19:12:24.074Z,14.07
2023-01-23T19:15:12.037Z,15.00
2023-01-23T19:17:50.465Z,14.60
2023-01-23T19:20:36.664Z,14.30
2023-01-23T19:23:18.959Z,13.85
2023-01-23T19:25:48.003Z,16.17
2023-01-23T19:28:15.904Z,16.00
2023-01-23T19:30:43.422Z,17.42
2023-01-23T19:33:15.724Z,16.95
2023-01-23T19:35:43.263Z,16.65
2023-01-23T19:38:10.789Z,17.23
2023-01-23T19:40:38.240Z,15.35
2023-01-23T19:43:14.041Z,16.55
2023-01-23T19:45:42.177Z,16.48
2023-01-23T19:48:09.470Z,16.13
2023-01-23T19:50:37.307Z,17.40
2023-01-23T19:53:04.823Z,17.38
2023-01-23T19:55:33.658Z,18.90
2023-01-23T19:58:01.291Z,23.23
2023-01-23T20:00:29.865Z,19.13
2023-01-23T20:02:57.438Z,17.73
2023-01-23T20:05:25.092Z,16.70
2023-01-23T20:07:53.935Z,16.83
2023-01-23T20:10:21.835Z,15.30
2023-01-23T20:12:55.191Z,17.40
2023-01-23T20:15:23.635Z,17.33
2023-01-23T20:17:51.931Z,18.98
2023-01-23T20:20:19.673Z,18.90
2023-01-23T20:22:47.043Z,18.02
2023-01-23T20:25:15.810Z,16.95
2023-01-23T20:27:43.460Z,14.60
2023-01-23T20:30:15.280Z,16.83
2023-01-23T20:32:42.679Z,17.63
2023-01-23T20:35:10.095Z,19.13
2023-01-23T20:37:37.348Z,16.80
2023-01-23T20:40:04.951Z,16.83
2023-01-23T20:42:32.185Z,16.70
2023-01-23T20:44:59.468Z,16.77
2023-01-23T20:47:26.797Z,17.02
2023-01-23T20:49:54.073Z,14.75
2023-01-23T20:52:40.042Z,18.98
2023-01-23T20:55:07.475Z,17.42
2023-01-23T20:57:53.338Z,16.17
2023-01-23T21:00:20.661Z,16.77
2023-01-23T21:02:48.000Z,17.02
2023-01-23T21:05:15.313Z,15.30
2023-01-23T21:07:42.551Z,15.07
2023-01-23T21:10:10.118Z,17.30
2023-01-23T21:12:37.446Z,15.35
2023-01-23T21:15:04.913Z,15.55
2023-01-23T21:17:32.196Z,17.83
2023-01-23T21:19:59.506Z,16.65
2023-01-23T21:22:26.709Z,15.63
2023-01-23T21:24:54.159Z,16.90
2023-01-23T21:27:23.479Z,16.13
2023-01-23T21:29:51.833Z,16.40
2023-01-23T21:32:21.083Z,15.63
2023-01-23T21:34:48.473Z,15.98
2023-01-23T21:37:15.703Z,15.88
2023-01-23T21:39:43.003Z,15.57
2023-01-23T21:42:10.306Z,15.75
2023-01-23T21:44:37.506Z,14.95
2023-01-23T21:47:04.754Z,16.63
2023-01-23T21:49:32.066Z,16.13
2023-01-23T21:51:59.535Z,16.23
2023-01-23T21:54:26.811Z,16.23
2023-01-23T21:56:54.090Z,14.48
2023-01-23T21:59:21.371Z,14.63
2023-01-23T22:01:48.744Z,16.38
2023-01-23T22:04:22.404Z,16.23
2023-01-23T22:06:54.096Z,16.00
2023-01-23T22:09:22.742Z,15.73
2023-01-23T22:11:50.120Z,16.05
2023-01-23T22:14:19.226Z,16.10
2023-01-23T22:16:49.788Z,15.95
2023-01-23T22:19:19.179Z,15.18
2023-01-23T22:21:46.898Z,15.20
2023-01-23T22:24:14.878Z,14.63
2023-01-23T22:26:42.611Z,18.10
2023-01-23T22:29:09.885Z,15.05
2023-01-23T22:31:37.314Z,16.42
2023-01-23T22:34:04.675Z,15.75
2023-01-23T22:36:31.902Z,17.23
2023-01-23T22:38:59.143Z,16.80
2023-01-23T22:41:26.797Z,15.68
2023-01-23T22:43:54.651Z,15.25
2023-01-23T22:46:22.592Z,16.27
2023-01-23T22:48:50.257Z,14.32
2023-01-23T22:51:25.460Z,15.35
2023-01-23T22:53:53.373Z,16.05
2023-01-23T22:56:20.780Z,15.75
2023-01-23T22:58:48.653Z,15.13
2023-01-23T23:01:16.040Z,17.33
2023-01-23T23:03:43.751Z,15.48
2023-01-23T23:06:12.980Z,16.13
2023-01-23T23:08:40.643Z,15.93
2023-01-23T23:11:18.705Z,14.35
2023-01-23T23:13:45.949Z,15.65
2023-01-23T23:16:17.795Z,15.80
2023-01-23T23:18:46.166Z,16.30
2023-01-23T23:21:14.703Z,16.25
2023-01-23T23:23:42.051Z,15.23
2023-01-23T23:26:10.225Z,14.63
2023-01-23T23:28:38.284Z,17.30
2023-01-23T23:31:06.197Z,17.45
2023-01-23T23:33:33.803Z,17.27
2023-01-23T23:36:01.032Z,15.57
2023-01-23T23:38:28.320Z,15.43
2023-01-23T23:40:59.949Z,15.18
2023-01-23T23:43:27.431Z,18.13
2023-01-23T23:45:55.550Z,16.80
2023-01-23T23:48:23.327Z,17.30
2023-01-23T23:50:50.776Z,15.57
2023-01-23T23:53:18.261Z,16.35
2023-01-23T23:55:46.019Z,16.25
2023-01-23T23:58:13.296Z,17.13
